createdAt,value
2023-01-01T00:01:48.245Z,28.63
2023-01-01T00:04:49.753Z,22.27
2023-01-01T00:07:51.299Z,26.63
2023-01-01T00:10:52.811Z,24.50
2023-01-01T00:13:54.342Z,26.40
2023-01-01T00:16:56.161Z,28.65
2023-01-01T00:19:57.846Z,18.15
2023-01-01T00:22:59.491Z,18.45
2023-01-01T00:26:01.106Z,15.45
2023-01-01T00:29:03.198Z,13.75
2023-01-01T00:32:06.417Z,4.30
2023-01-01T00:35:10.540Z,5.05
2023-01-01T00:38:12.084Z,4.40
2023-01-01T00:41:14.133Z,4.75
2023-01-01T00:44:15.697Z,5.05
2023-01-01T00:47:17.359Z,4.68
2023-01-01T00:50:19.555Z,4.03
2023-01-01T00:56:22.611Z,4.95
2023-01-01T00:59:28.669Z,5.18
2023-01-01T01:02:30.877Z,4.80
2023-01-01T01:05:32.945Z,6.05
2023-01-01T01:08:34.962Z,5.18
2023-01-01T01:11:36.531Z,5.20
2023-01-01T01:14:38.035Z,5.30
2023-01-01T01:17:39.623Z,4.88
2023-01-01T01:20:41.222Z,5.30
2023-01-01T01:23:42.801Z,6.03
2023-01-01T01:26:44.381Z,4.00
2023-01-01T01:29:45.971Z,4.07
2023-01-01T01:32:47.606Z,4.63
2023-01-01T01:35:52.344Z,4.00
2023-01-01T01:38:54.825Z,5.22
2023-01-01T01:41:56.377Z,4.00
2023-01-01T01:44:59.716Z,3.85
2023-01-01T01:48:01.291Z,3.97
2023-01-01T01:51:02.873Z,3.35
2023-01-01T01:54:07.889Z,3.70
2023-01-01T01:57:09.680Z,3.38
2023-01-01T02:00:12.193Z,3.58
2023-01-01T02:03:23.765Z,3.53
2023-01-01T02:06:29.497Z,3.10
2023-01-01T02:09:31.073Z,3.45
2023-01-01T02:12:32.636Z,3.20
2023-01-01T02:15:37.080Z,2.83
2023-01-01T02:19:00.530Z,3.15
2023-01-01T02:22:08.469Z,3.05
2023-01-01T02:25:24.141Z,3.10
2023-01-01T02:28:40.837Z,2.90
2023-01-01T02:31:45.453Z,4.05
2023-01-01T02:34:50.828Z,4.97
2023-01-01T02:37:57.061Z,4.47
2023-01-01T02:41:04.113Z,4.07
2023-01-01T02:47:07.974Z,4.35
2023-01-01T02:50:18.823Z,4.10
2023-01-01T02:53:26.912Z,3.85
2023-01-01T02:56:36.961Z,4.30
2023-01-01T03:00:10.245Z,3.58
2023-01-01T03:03:16.017Z,3.70
2023-01-01T03:06:27.199Z,4.07
2023-01-01T03:09:39.236Z,3.47
2023-01-01T03:12:54.556Z,4.63
2023-01-01T03:16:01.019Z,3.35
2023-01-01T03:19:18.979Z,4.75
2023-01-01T03:22:20.553Z,3.42
2023-01-01T03:25:23.994Z,2.92
2023-01-01T03:28:30.238Z,2.88
2023-01-01T03:31:32.016Z,2.67
2023-01-01T03:34:35.893Z,3.03
2023-01-01T03:37:37.432Z,2.20
2023-01-01T03:40:38.962Z,2.08
2023-01-01T03:43:46.486Z,2.63
2023-01-01T03:46:48.158Z,2.10
2023-01-01T03:49:49.733Z,2.63
2023-01-01T03:52:57.272Z,2.50
2023-01-01T03:56:19.904Z,2.25
2023-01-01T03:59:23.954Z,1.80
2023-01-01T04:02:28.933Z,3.28
2023-01-01T04:05:30.938Z,2.45
2023-01-01T04:08:33.720Z,3.75
2023-01-01T04:11:53.979Z,3.55
2023-01-01T04:14:55.630Z,2.47
2023-01-01T04:17:57.165Z,2.70
2023-01-01T04:20:58.703Z,2.35
2023-01-01T04:24:00.230Z,2.17
2023-01-01T04:27:01.742Z,2.67
2023-01-01T04:30:07.220Z,3.78
2023-01-01T04:33:08.822Z,2.17
2023-01-01T04:36:10.451Z,1.95
2023-01-01T04:39:11.991Z,2.92
2023-01-01T04:42:13.615Z,2.30
2023-01-01T04:45:15.653Z,2.85
2023-01-01T04:48:17.261Z,2.40
2023-01-01T04:51:19.821Z,3.08
2023-01-01T04:54:21.367Z,3.03
2023-01-01T04:57:23.074Z,3.28
2023-01-01T05:00:24.892Z,3.67
2023-01-01T05:03:26.461Z,5.18
2023-01-01T05:06:28.885Z,3.38
2023-01-01T05:09:30.443Z,3.85
2023-01-01T05:12:31.993Z,2.95
2023-01-01T05:15:36.098Z,3.20
2023-01-01T05:18:38.275Z,4.43
2023-01-01T05:21:40.535Z,3.30
2023-01-01T05:24:42.091Z,2.75
2023-01-01T05:27:43.665Z,2.70
2023-01-01T05:30:45.176Z,2.45
2023-01-01T05:33:46.793Z,3.03
2023-01-01T05:36:48.403Z,2.70
2023-01-01T05:39:49.928Z,2.17
2023-01-01T05:42:51.432Z,1.60
2023-01-01T05:46:02.918Z,2.37
2023-01-01T05:49:04.628Z,2.30
2023-01-01T05:52:06.169Z,2.00
2023-01-01T05:55:08.021Z,2.13
2023-01-01T05:58:09.577Z,2.33
2023-01-01T06:01:25.195Z,2.70
2023-01-01T06:04:26.876Z,2.30
2023-01-01T06:07:28.446Z,2.80
2023-01-01T06:10:29.994Z,2.30
2023-01-01T06:13:31.613Z,1.95
2023-01-01T06:16:33.177Z,2.22
2023-01-01T06:19:34.746Z,1.77
2023-01-01T06:22:37.633Z,2.10
2023-01-01T06:25:39.202Z,2.20
2023-01-01T06:28:40.863Z,2.60
2023-01-01T06:31:42.409Z,1.98
2023-01-01T06:34:44.063Z,1.97
2023-01-01T06:37:45.611Z,2.03
2023-01-01T06:40:58.050Z,1.97
2023-01-01T06:44:00.953Z,2.58
2023-01-01T06:47:02.509Z,1.70
2023-01-01T06:50:04.577Z,1.93
2023-01-01T06:53:06.134Z,2.10
2023-01-01T06:56:07.811Z,2.07
2023-01-01T06:59:09.357Z,2.50
2023-01-01T07:02:11.404Z,2.00
2023-01-01T07:05:13.094Z,3.78
2023-01-01T07:08:14.676Z,1.70
2023-01-01T07:11:16.345Z,2.15
2023-01-01T07:14:17.858Z,2.35
2023-01-01T07:17:19.465Z,2.37
2023-01-01T07:20:21.034Z,2.87
2023-01-01T07:23:22.810Z,2.20
2023-01-01T07:26:25.256Z,2.85
2023-01-01T07:29:26.826Z,2.30
2023-01-01T07:32:28.345Z,2.03
2023-01-01T07:35:29.879Z,2.60
2023-01-01T07:38:31.403Z,2.67
2023-01-01T07:41:32.992Z,2.10
2023-01-01T07:44:34.535Z,2.55
2023-01-01T07:47:36.151Z,2.63
2023-01-01T07:50:38.335Z,2.50
2023-01-01T07:53:39.893Z,2.97
2023-01-01T07:56:41.442Z,2.10
2023-01-01T07:59:42.970Z,2.80
2023-01-01T08:02:44.693Z,2.70
2023-01-01T08:05:46.302Z,2.97
2023-01-01T08:08:47.830Z,4.00
2023-01-01T08:11:51.503Z,4.10
2023-01-01T08:14:53.063Z,3.72
2023-01-01T08:17:58.373Z,4.40
2023-01-01T08:20:59.990Z,2.97
2023-01-01T08:24:01.735Z,2.85
2023-01-01T08:27:03.307Z,2.50
2023-01-01T08:30:05.338Z,3.63
2023-01-01T08:33:06.914Z,2.63
2023-01-01T08:36:10.654Z,2.88
2023-01-01T08:39:12.316Z,2.42
2023-01-01T08:42:13.910Z,2.15
2023-01-01T08:45:15.419Z,2.10
2023-01-01T08:48:16.946Z,2.57
2023-01-01T08:51:18.585Z,2.90
2023-01-01T08:54:20.088Z,3.60
2023-01-01T08:57:21.659Z,7.37
2023-01-01T09:00:23.342Z,3.30
2023-01-01T09:03:25.175Z,2.30
2023-01-01T09:06:26.819Z,3.03
2023-01-01T09:09:31.582Z,2.45
2023-01-01T09:12:33.539Z,4.13
2023-01-01T09:15:35.077Z,17.40
2023-01-01T09:18:36.615Z,2.50
2023-01-01T09:21:38.414Z,11.90
2023-01-01T09:24:39.972Z,27.90
2023-01-01T09:27:41.549Z,12.48
2023-01-01T09:30:43.116Z,3.42
2023-01-01T09:33:44.723Z,2.55
2023-01-01T09:36:46.504Z,2.55
2023-01-01T09:39:48.170Z,2.65
2023-01-01T09:42:50.676Z,2.70
2023-01-01T09:45:57.544Z,2.70
2023-01-01T09:49:05.510Z,2.50
2023-01-01T09:52:07.060Z,3.17
2023-01-01T09:55:22.857Z,2.88
2023-01-01T09:58:26.714Z,2.58
2023-01-01T10:01:32.391Z,3.03
2023-01-01T10:04:49.895Z,2.78
2023-01-01T10:08:09.791Z,3.47
2023-01-01T10:11:17.510Z,2.80
2023-01-01T10:14:43.518Z,3.60
2023-01-01T10:17:46.883Z,3.85
2023-01-01T10:20:53.565Z,4.20
2023-01-01T10:23:56.103Z,3.40
2023-01-01T10:26:57.691Z,4.70
2023-01-01T10:30:04.324Z,2.97
2023-01-01T10:33:10.409Z,2.88
2023-01-01T10:36:14.374Z,4.97
2023-01-01T10:39:16.308Z,3.97
2023-01-01T10:45:24.383Z,3.30
2023-01-01T10:48:26.997Z,4.03
2023-01-01T10:51:28.619Z,3.05
2023-01-01T10:54:31.859Z,4.90
2023-01-01T10:57:35.283Z,4.47
2023-01-01T11:00:36.926Z,7.55
2023-01-01T11:03:38.459Z,5.38
2023-01-01T11:06:41.378Z,3.60
2023-01-01T11:10:01.610Z,3.40
2023-01-01T11:13:12.742Z,4.15
2023-01-01T11:16:14.441Z,3.75
2023-01-01T11:22:42.380Z,4.05
2023-01-01T11:25:56.942Z,3.30
2023-01-01T11:29:17.361Z,3.15
2023-01-01T11:32:50.527Z,3.03
2023-01-01T11:35:56.708Z,3.42
2023-01-01T11:39:16.475Z,3.25
2023-01-01T11:42:20.063Z,2.92
2023-01-01T11:45:37.888Z,3.10
2023-01-01T11:48:42.349Z,3.42
2023-01-01T11:51:43.933Z,2.70
2023-01-01T11:54:45.460Z,6.05
2023-01-01T11:58:01.542Z,3.33
2023-01-01T12:01:25.907Z,3.60
2023-01-01T12:04:34.987Z,2.92
2023-01-01T12:07:36.632Z,3.40
2023-01-01T12:10:45.556Z,2.97
2023-01-01T12:14:04.516Z,3.42
2023-01-01T12:17:22.312Z,3.47
2023-01-01T12:20:40.645Z,3.15
2023-01-01T12:23:42.153Z,8.57
2023-01-01T12:27:11.388Z,5.93
2023-01-01T12:30:22.072Z,6.32
2023-01-01T12:33:45.025Z,5.63
2023-01-01T12:37:11.152Z,6.10
2023-01-01T12:40:32.290Z,5.22
2023-01-01T12:43:36.668Z,3.92
2023-01-01T12:46:57.027Z,2.72
2023-01-01T12:50:10.608Z,2.90
2023-01-01T12:53:24.090Z,2.92
2023-01-01T12:56:42.764Z,3.00
2023-01-01T12:59:48.521Z,2.70
2023-01-01T13:02:58.866Z,3.78
2023-01-01T13:06:01.550Z,4.00
2023-01-01T13:09:07.089Z,3.17
2023-01-01T13:12:11.438Z,3.58
2023-01-01T13:15:37.386Z,4.45
2023-01-01T13:18:38.912Z,3.33
2023-01-01T13:21:40.467Z,4.32
2023-01-01T13:24:42.036Z,4.05
2023-01-01T13:28:03.647Z,3.95
2023-01-01T13:31:05.269Z,4.10
2023-01-01T13:34:31.646Z,3.92
2023-01-01T13:37:42.728Z,4.50
2023-01-01T13:40:50.738Z,3.63
2023-01-01T13:43:53.102Z,3.95
2023-01-01T13:47:15.684Z,4.38
2023-01-01T13:50:43.386Z,3.38
2023-01-01T13:53:55.502Z,7.80
2023-01-01T14:00:04.351Z,5.57
2023-01-01T14:03:12.848Z,5.57
2023-01-01T14:06:32.001Z,3.20
2023-01-01T14:09:33.593Z,3.78
2023-01-01T14:12:37.937Z,4.03
2023-01-01T14:16:00.332Z,3.40
2023-01-01T14:19:03.464Z,4.38
2023-01-01T14:22:07.742Z,4.25
2023-01-01T14:25:16.843Z,5.13
2023-01-01T14:28:26.231Z,4.88
2023-01-01T14:31:31.966Z,4.28
2023-01-01T14:34:34.959Z,3.00
2023-01-01T14:37:36.592Z,3.00
2023-01-01T14:40:38.703Z,3.20
2023-01-01T14:46:43.848Z,2.80
2023-01-01T14:49:45.408Z,3.42
2023-01-01T14:52:47.407Z,3.15
2023-01-01T14:58:50.455Z,2.90
2023-01-01T15:02:13.355Z,3.83
2023-01-01T15:05:27.684Z,3.30
2023-01-01T15:08:31.629Z,2.95
2023-01-01T15:11:33.170Z,3.22
2023-01-01T15:14:43.791Z,3.20
2023-01-01T15:17:46.402Z,4.47
2023-01-01T15:20:53.189Z,2.78
2023-01-01T15:24:02.449Z,3.78
2023-01-01T15:27:06.890Z,4.03
2023-01-01T15:30:21.294Z,4.13
2023-01-01T15:33:22.913Z,4.95
2023-01-01T15:36:24.762Z,5.60
2023-01-01T15:39:26.270Z,4.80
2023-01-01T15:42:38.504Z,5.40
2023-01-01T15:45:40.546Z,7.00
2023-01-01T15:48:51.622Z,5.68
2023-01-01T15:51:54.897Z,4.28
2023-01-01T15:54:56.400Z,3.97
2023-01-01T15:57:58.153Z,6.20
2023-01-01T16:01:02.280Z,4.80
2023-01-01T16:04:11.464Z,4.10
2023-01-01T16:07:19.660Z,4.95
2023-01-01T16:10:21.178Z,4.20
2023-01-01T16:13:22.726Z,3.95
2023-01-01T16:16:26.885Z,3.40
2023-01-01T16:19:30.042Z,18.15
2023-01-01T16:22:36.548Z,10.02
2023-01-01T16:25:38.761Z,4.47
2023-01-01T16:28:40.369Z,4.25
2023-01-01T16:31:42.488Z,6.03
2023-01-01T16:34:44.276Z,3.67
2023-01-01T16:37:45.872Z,6.13
2023-01-01T16:40:47.474Z,5.65
2023-01-01T16:43:49.055Z,8.63
2023-01-01T16:46:50.606Z,5.05
2023-01-01T16:49:52.329Z,3.33
2023-01-01T16:52:53.883Z,4.43
2023-01-01T16:55:55.418Z,7.90
2023-01-01T16:59:02.802Z,4.87
2023-01-01T17:02:04.951Z,5.40
2023-01-01T17:05:06.806Z,2.95
2023-01-01T17:08:09.264Z,4.10
2023-01-01T17:11:14.016Z,3.70
2023-01-01T17:14:15.578Z,4.10
2023-01-01T17:17:17.369Z,4.45
2023-01-01T17:20:19.069Z,4.13
2023-01-01T17:23:20.806Z,4.70
2023-01-01T17:26:23.867Z,5.93
2023-01-01T17:29:25.628Z,6.88
2023-01-01T17:32:27.350Z,6.38
2023-01-01T17:35:33.160Z,6.32
2023-01-01T17:38:35.374Z,5.30
2023-01-01T17:41:38.209Z,5.15
2023-01-01T17:44:40.202Z,5.93
2023-01-01T17:47:41.945Z,4.75
2023-01-01T17:50:45.031Z,4.93
2023-01-01T17:53:46.938Z,5.32
2023-01-01T17:56:48.701Z,6.35
2023-01-01T17:59:50.300Z,5.95
2023-01-01T18:02:58.428Z,5.60
2023-01-01T18:06:06.306Z,8.63
2023-01-01T18:09:11.825Z,5.45
2023-01-01T18:12:13.896Z,8.45
2023-01-01T18:15:19.512Z,5.70
2023-01-01T18:18:27.749Z,5.65
2023-01-01T18:21:29.821Z,4.90
2023-01-01T18:24:31.996Z,6.68
2023-01-01T18:27:36.081Z,5.95
2023-01-01T18:30:40.548Z,4.03
2023-01-01T18:33:43.618Z,4.03
2023-01-01T18:37:04.816Z,3.92
2023-01-01T18:40:16.934Z,5.15
2023-01-01T18:43:22.506Z,5.32
2023-01-01T18:49:36.593Z,4.32
2023-01-01T18:52:38.145Z,4.43
2023-01-01T18:55:39.878Z,3.80
2023-01-01T18:58:42.831Z,3.45
2023-01-01T19:01:45.906Z,3.00
2023-01-01T19:04:47.753Z,4.15
2023-01-01T19:07:59.902Z,5.63
2023-01-01T19:11:02.350Z,5.90
2023-01-01T19:17:18.038Z,5.05
2023-01-01T19:20:21.959Z,11.32
2023-01-01T19:23:23.628Z,8.90
2023-01-01T19:26:29.214Z,8.97
2023-01-01T19:29:30.787Z,7.32
2023-01-01T19:32:32.404Z,6.27
2023-01-01T19:35:33.961Z,6.27
2023-01-01T19:38:35.568Z,4.20
2023-01-01T19:41:37.229Z,5.63
2023-01-01T19:44:38.779Z,6.63
2023-01-01T19:47:40.619Z,5.53
2023-01-01T19:50:42.257Z,5.15
2023-01-01T19:53:43.827Z,5.13
2023-01-01T19:56:45.979Z,3.50
2023-01-01T19:59:47.548Z,4.70
2023-01-01T20:02:49.396Z,4.53
2023-01-01T20:05:51.250Z,4.50
2023-01-01T20:08:53.201Z,4.83
2023-01-01T20:11:54.984Z,4.57
2023-01-01T20:14:56.622Z,3.35
2023-01-01T20:17:58.318Z,5.23
2023-01-01T20:21:25.252Z,4.55
2023-01-01T20:24:27.758Z,5.28
2023-01-01T20:27:29.448Z,6.28
2023-01-01T20:30:31.206Z,6.38
2023-01-01T20:33:32.839Z,6.88
2023-01-01T20:36:53.020Z,5.57
2023-01-01T20:39:54.656Z,5.70
2023-01-01T20:42:56.423Z,5.20
2023-01-01T20:45:58.092Z,7.10
2023-01-01T20:48:59.693Z,8.20
2023-01-01T20:52:01.263Z,6.60
2023-01-01T20:55:02.803Z,3.93
2023-01-01T20:58:04.448Z,4.00
2023-01-01T21:01:06.088Z,4.93
2023-01-01T21:04:07.705Z,3.28
2023-01-01T21:07:10.202Z,3.40
2023-01-01T21:10:11.782Z,3.38
2023-01-01T21:13:13.371Z,4.87
2023-01-01T21:16:37.024Z,8.20
2023-01-01T21:19:38.591Z,8.75
2023-01-01T21:22:42.026Z,9.60
2023-01-01T21:25:51.921Z,7.15
2023-01-01T21:28:54.393Z,7.35
2023-01-01T21:32:24.549Z,5.50
2023-01-01T21:35:31.861Z,3.30
2023-01-01T21:38:33.434Z,5.40
2023-01-01T21:41:34.963Z,5.10
2023-01-01T21:44:36.506Z,4.30
2023-01-01T21:47:38.067Z,3.53
2023-01-01T21:50:40.354Z,3.73
2023-01-01T21:53:41.883Z,3.60
2023-01-01T21:56:46.330Z,5.07
2023-01-01T21:59:48.144Z,5.20
2023-01-01T22:02:50.873Z,5.30
2023-01-01T22:05:59.030Z,4.70
2023-01-01T22:09:01.084Z,4.97
2023-01-01T22:12:15.170Z,5.20
2023-01-01T22:15:23.803Z,4.57
2023-01-01T22:18:26.004Z,4.55
2023-01-01T22:21:27.622Z,4.28
2023-01-01T22:24:34.778Z,4.50
2023-01-01T22:27:36.326Z,4.43
2023-01-01T22:30:40.392Z,4.30
2023-01-01T22:33:43.277Z,4.25
2023-01-01T22:36:44.855Z,3.55
2023-01-01T22:39:46.656Z,3.20
2023-01-01T22:42:48.202Z,2.50
2023-01-01T22:45:49.736Z,2.77
2023-01-01T22:48:57.841Z,2.33
2023-01-01T22:51:59.868Z,2.80
2023-01-01T22:55:01.440Z,3.83
2023-01-01T22:58:03.003Z,2.90
2023-01-01T23:01:04.701Z,3.53
2023-01-01T23:04:06.282Z,2.45
2023-01-01T23:07:14.239Z,2.80
2023-01-01T23:10:15.894Z,3.20
2023-01-01T23:13:36.095Z,2.85
2023-01-01T23:16:37.666Z,3.97
2023-01-01T23:19:39.265Z,2.70
2023-01-01T23:22:42.774Z,2.50
2023-01-01T23:25:44.335Z,2.20
2023-01-01T23:28:45.977Z,2.60
2023-01-01T23:31:47.914Z,2.73
2023-01-01T23:34:49.461Z,2.60
2023-01-01T23:37:51.007Z,2.23
2023-01-01T23:40:52.583Z,2.00
2023-01-01T23:43:54.127Z,2.07
2023-01-01T23:46:55.860Z,2.83
2023-01-01T23:49:57.375Z,2.20
2023-01-01T23:52:58.933Z,2.90
2023-01-01T23:56:00.518Z,1.90
2023-01-01T23:59:02.080Z,1.87
